sensor_id;sensor_type;location;lat;lon;timestamp;P1;durP1;ratioP1;P2;durP2;ratioP2
64061;SDS011;50308;47.438;-1.528;2023-06-14T00:00:33;13.40;;;9.30;;
64061;SDS011;50308;47.438;-1.528;2023-06-14T00:03:00;13.65;;;9.30;;
64061;SDS011;50308;47.438;-1.528;2023-06-14T00:05:25;15.43;;;9.77;;
64061;SDS011;50308;47.438;-1.528;2023-06-14T00:07:51;12.40;;;9.07;;
64061;SDS011;50308;47.438;-1.528;2023-06-14T00:10:18;10.32;;;8.57;;
64061;SDS011;50308;47.438;-1.528;2023-06-14T00:12:44;13.60;;;9.25;;
64061;SDS011;50308;47.438;-1.528;2023-06-14T00:15:10;13.57;;;9.35;;
64061;SDS011;50308;47.438;-1.528;2023-06-14T00:17:36;12.88;;;10.07;;
64061;SDS011;50308;47.438;-1.528;2023-06-14T00:20:04;12.40;;;10.05;;
64061;SDS011;50308;47.438;-1.528;2023-06-14T00:22:33;13.38;;;9.27;;
64061;SDS011;50308;47.438;-1.528;2023-06-14T00:24:59;13.02;;;9.20;;
64061;SDS011;50308;47.438;-1.528;2023-06-14T00:27:25;14.90;;;10.65;;
64061;SDS011;50308;47.438;-1.528;2023-06-14T00:29:51;17.30;;;10.15;;
64061;SDS011;50308;47.438;-1.528;2023-06-14T00:32:18;13.73;;;9.82;;
64061;SDS011;50308;47.438;-1.528;2023-06-14T00:34:43;14.75;;;9.43;;
64061;SDS011;50308;47.438;-1.528;2023-06-14T00:37:09;13.85;;;10.50;;
64061;SDS011;50308;47.438;-1.528;2023-06-14T00:39:35;13.82;;;9.60;;
64061;SDS011;50308;47.438;-1.528;2023-06-14T00:42:00;16.75;;;9.75;;
64061;SDS011;50308;47.438;-1.528;2023-06-14T00:44:26;15.20;;;10.63;;
64061;SDS011;50308;47.438;-1.528;2023-06-14T00:46:52;15.70;;;11.18;;
64061;SDS011;50308;47.438;-1.528;2023-06-14T00:49:18;14.35;;;9.60;;
64061;SDS011;50308;47.438;-1.528;2023-06-14T00:51:45;13.50;;;9.68;;
64061;SDS011;50308;47.438;-1.528;2023-06-14T00:54:11;15.15;;;10.15;;
64061;SDS011;50308;47.438;-1.528;2023-06-14T00:56:37;15.10;;;9.77;;
64061;SDS011;50308;47.438;-1.528;2023-06-14T00:59:03;14.32;;;10.27;;
64061;SDS011;50308;47.438;-1.528;2023-06-14T01:01:29;14.20;;;10.25;;
64061;SDS011;50308;47.438;-1.528;2023-06-14T01:03:57;13.07;;;10.35;;
64061;SDS011;50308;47.438;-1.528;2023-06-14T01:14:38;14.75;;;9.77;;
64061;SDS011;50308;47.438;-1.528;2023-06-14T01:17:04;14.63;;;10.32;;
64061;SDS011;50308;47.438;-1.528;2023-06-14T01:19:32;13.68;;;10.00;;
64061;SDS011;50308;47.438;-1.528;2023-06-14T01:22:00;14.80;;;10.43;;
64061;SDS011;50308;47.438;-1.528;2023-06-14T01:24:27;13.40;;;9.85;;
64061;SDS011;50308;47.438;-1.528;2023-06-14T01:26:57;20.00;;;10.47;;
64061;SDS011;50308;47.438;-1.528;2023-06-14T01:29:24;15.40;;;10.65;;
64061;SDS011;50308;47.438;-1.528;2023-06-14T01:31:53;13.75;;;11.13;;
64061;SDS011;50308;47.438;-1.528;2023-06-14T01:34:19;16.13;;;11.02;;
64061;SDS011;50308;47.438;-1.528;2023-06-14T01:36:45;15.93;;;11.20;;
64061;SDS011;50308;47.438;-1.528;2023-06-14T01:39:14;14.95;;;10.70;;
64061;SDS011;50308;47.438;-1.528;2023-06-14T01:41:40;16.40;;;10.45;;
64061;SDS011;50308;47.438;-1.528;2023-06-14T01:44:07;14.15;;;11.13;;
64061;SDS011;50308;47.438;-1.528;2023-06-14T01:46:34;15.85;;;11.35;;
64061;SDS011;50308;47.438;-1.528;2023-06-14T01:49:01;13.45;;;10.07;;
64061;SDS011;50308;47.438;-1.528;2023-06-14T01:51:27;15.23;;;11.43;;
64061;SDS011;50308;47.438;-1.528;2023-06-14T01:53:53;15.98;;;10.52;;
64061;SDS011;50308;47.438;-1.528;2023-06-14T01:56:18;17.40;;;11.43;;
64061;SDS011;50308;47.438;-1.528;2023-06-14T01:58:44;13.77;;;11.10;;
64061;SDS011;50308;47.438;-1.528;2023-06-14T02:01:10;17.38;;;10.88;;
64061;SDS011;50308;47.438;-1.528;2023-06-14T02:03:37;15.38;;;10.85;;
64061;SDS011;50308;47.438;-1.528;2023-06-14T02:06:03;16.15;;;11.32;;
64061;SDS011;50308;47.438;-1.528;2023-06-14T02:08:29;15.30;;;10.70;;
64061;SDS011;50308;47.438;-1.528;2023-06-14T02:10:55;13.23;;;10.27;;
64061;SDS011;50308;47.438;-1.528;2023-06-14T02:13:21;15.00;;;11.63;;
64061;SDS011;50308;47.438;-1.528;2023-06-14T02:15:47;14.70;;;11.68;;
64061;SDS011;50308;47.438;-1.528;2023-06-14T02:18:16;17.50;;;11.63;;
64061;SDS011;50308;47.438;-1.528;2023-06-14T02:20:41;18.90;;;11.43;;
64061;SDS011;50308;47.438;-1.528;2023-06-14T02:23:07;15.95;;;11.25;;
64061;SDS011;50308;47.438;-1.528;2023-06-14T02:25:33;16.55;;;12.00;;
64061;SDS011;50308;47.438;-1.528;2023-06-14T02:27:59;15.73;;;11.88;;
64061;SDS011;50308;47.438;-1.528;2023-06-14T02:30:25;17.05;;;11.95;;
64061;SDS011;50308;47.438;-1.528;2023-06-14T02:32:50;16.00;;;11.90;;
64061;SDS011;50308;47.438;-1.528;2023-06-14T02:35:16;16.30;;;12.05;;
64061;SDS011;50308;47.438;-1.528;2023-06-14T02:37:42;16.35;;;12.18;;
64061;SDS011;50308;47.438;-1.528;2023-06-14T02:40:08;15.60;;;11.98;;
64061;SDS011;50308;47.438;-1.528;2023-06-14T02:42:34;17.60;;;13.13;;
64061;SDS011;50308;47.438;-1.528;2023-06-14T02:44:59;16.85;;;12.57;;
64061;SDS011;50308;47.438;-1.528;2023-06-14T02:47:27;18.00;;;13.25;;
64061;SDS011;50308;47.438;-1.528;2023-06-14T02:49:53;18.52;;;13.70;;
64061;SDS011;50308;47.438;-1.528;2023-06-14T02:52:18;19.48;;;12.43;;
64061;SDS011;50308;47.438;-1.528;2023-06-14T02:54:45;20.73;;;13.18;;
64061;SDS011;50308;47.438;-1.528;2023-06-14T02:57:12;19.45;;;13.32;;
64061;SDS011;50308;47.438;-1.528;2023-06-14T02:59:38;19.15;;;13.63;;
64061;SDS011;50308;47.438;-1.528;2023-06-14T03:02:03;17.67;;;12.80;;
64061;SDS011;50308;47.438;-1.528;2023-06-14T03:04:30;18.55;;;12.57;;
64061;SDS011;50308;47.438;-1.528;2023-06-14T03:06:59;17.75;;;12.68;;
64061;SDS011;50308;47.438;-1.528;2023-06-14T03:09:27;17.90;;;13.05;;
64061;SDS011;50308;47.438;-1.528;2023-06-14T03:11:53;19.63;;;13.23;;
64061;SDS011;50308;47.438;-1.528;2023-06-14T03:14:19;18.15;;;12.98;;
64061;SDS011;50308;47.438;-1.528;2023-06-14T03:16:46;18.33;;;12.40;;
64061;SDS011;50308;47.438;-1.528;2023-06-14T03:19:12;24.95;;;13.98;;
64061;SDS011;50308;47.438;-1.528;2023-06-14T03:21:37;19.23;;;13.13;;
64061;SDS011;50308;47.438;-1.528;2023-06-14T03:26:34;18.92;;;13.10;;
64061;SDS011;50308;47.438;-1.528;2023-06-14T03:29:02;19.33;;;13.63;;
64061;SDS011;50308;47.438;-1.528;2023-06-14T03:31:28;17.95;;;13.00;;
64061;SDS011;50308;47.438;-1.528;2023-06-14T03:33:57;18.30;;;13.02;;
64061;SDS011;50308;47.438;-1.528;2023-06-14T03:36:23;18.85;;;13.52;;
64061;SDS011;50308;47.438;-1.528;2023-06-14T03:38:50;19.42;;;13.52;;
64061;SDS011;50308;47.438;-1.528;2023-06-14T03:41:16;16.65;;;12.20;;
64061;SDS011;50308;47.438;-1.528;2023-06-14T03:43:42;20.77;;;13.10;;
64061;SDS011;50308;47.438;-1.528;2023-06-14T03:46:07;18.90;;;12.63;;
64061;SDS011;50308;47.438;-1.528;2023-06-14T03:48:33;18.55;;;12.63;;
64061;SDS011;50308;47.438;-1.528;2023-06-14T03:50:59;16.90;;;12.82;;
64061;SDS011;50308;47.438;-1.528;2023-06-14T03:53:24;20.35;;;13.20;;
64061;SDS011;50308;47.438;-1.528;2023-06-14T03:55:52;20.20;;;13.57;;
64061;SDS011;50308;47.438;-1.528;2023-06-14T03:58:19;20.40;;;14.25;;
64061;SDS011;50308;47.438;-1.528;2023-06-14T04:00:44;20.98;;;14.10;;
64061;SDS011;50308;47.438;-1.528;2023-06-14T04:03:10;20.00;;;13.80;;
64061;SDS011;50308;47.438;-1.528;2023-06-14T04:05:38;20.00;;;14.38;;
64061;SDS011;50308;47.438;-1.528;2023-06-14T04:08:07;20.20;;;14.25;;
64061;SDS011;50308;47.438;-1.528;2023-06-14T04:10:35;18.92;;;13.85;;
64061;SDS011;50308;47.438;-1.528;2023-06-14T04:13:01;19.27;;;13.07;;
64061;SDS011;50308;47.438;-1.528;2023-06-14T04:15:27;25.83;;;14.38;;
64061;SDS011;50308;47.438;-1.528;2023-06-14T04:17:53;21.35;;;14.30;;
64061;SDS011;50308;47.438;-1.528;2023-06-14T04:20:22;22.02;;;14.45;;
64061;SDS011;50308;47.438;-1.528;2023-06-14T04:22:49;19.48;;;14.23;;
64061;SDS011;50308;47.438;-1.528;2023-06-14T04:25:16;21.73;;;15.02;;
64061;SDS011;50308;47.438;-1.528;2023-06-14T04:27:42;25.50;;;15.85;;
64061;SDS011;50308;47.438;-1.528;2023-06-14T04:30:08;19.50;;;15.07;;
64061;SDS011;50308;47.438;-1.528;2023-06-14T04:32:34;21.95;;;15.05;;
64061;SDS011;50308;47.438;-1.528;2023-06-14T04:35:05;22.80;;;15.55;;
64061;SDS011;50308;47.438;-1.528;2023-06-14T04:37:32;24.42;;;15.60;;
64061;SDS011;50308;47.438;-1.528;2023-06-14T04:39:58;22.75;;;15.27;;
64061;SDS011;50308;47.438;-1.528;2023-06-14T04:42:23;24.77;;;14.88;;
64061;SDS011;50308;47.438;-1.528;2023-06-14T04:44:55;24.27;;;15.10;;
64061;SDS011;50308;47.438;-1.528;2023-06-14T04:47:22;23.55;;;16.10;;
64061;SDS011;50308;47.438;-1.528;2023-06-14T04:49:49;21.58;;;15.38;;
64061;SDS011;50308;47.438;-1.528;2023-06-14T04:52:18;25.00;;;15.45;;
64061;SDS011;50308;47.438;-1.528;2023-06-14T04:54:45;24.10;;;15.93;;
64061;SDS011;50308;47.438;-1.528;2023-06-14T04:57:12;25.30;;;17.10;;
64061;SDS011;50308;47.438;-1.528;2023-06-14T04:59:42;24.40;;;17.30;;
64061;SDS011;50308;47.438;-1.528;2023-06-14T05:02:09;27.08;;;17.05;;
64061;SDS011;50308;47.438;-1.528;2023-06-14T05:04:35;24.23;;;16.52;;
64061;SDS011;50308;47.438;-1.528;2023-06-14T05:07:04;23.80;;;16.52;;
64061;SDS011;50308;47.438;-1.528;2023-06-14T05:09:34;24.70;;;17.27;;
64061;SDS011;50308;47.438;-1.528;2023-06-14T05:12:00;26.42;;;17.38;;
64061;SDS011;50308;47.438;-1.528;2023-06-14T05:14:26;27.25;;;16.90;;
64061;SDS011;50308;47.438;-1.528;2023-06-14T05:16:52;25.45;;;17.25;;
64061;SDS011;50308;47.438;-1.528;2023-06-14T05:19:18;27.15;;;18.08;;
64061;SDS011;50308;47.438;-1.528;2023-06-14T05:21:46;27.70;;;18.60;;
64061;SDS011;50308;47.438;-1.528;2023-06-14T05:24:12;31.25;;;19.15;;
64061;SDS011;50308;47.438;-1.528;2023-06-14T05:26:38;28.83;;;19.30;;
64061;SDS011;50308;47.438;-1.528;2023-06-14T05:29:05;28.42;;;18.55;;
64061;SDS011;50308;47.438;-1.528;2023-06-14T05:31:31;29.48;;;19.05;;
64061;SDS011;50308;47.438;-1.528;2023-06-14T05:33:56;28.95;;;19.23;;
64061;SDS011;50308;47.438;-1.528;2023-06-14T05:36:22;29.17;;;18.38;;
64061;SDS011;50308;47.438;-1.528;2023-06-14T05:38:48;31.77;;;19.30;;
64061;SDS011;50308;47.438;-1.528;2023-06-14T05:41:13;30.60;;;19.05;;
64061;SDS011;50308;47.438;-1.528;2023-06-14T05:43:39;31.73;;;19.00;;
64061;SDS011;50308;47.438;-1.528;2023-06-14T05:46:05;27.50;;;19.52;;
64061;SDS011;50308;47.438;-1.528;2023-06-14T05:48:31;31.63;;;19.83;;
64061;SDS011;50308;47.438;-1.528;2023-06-14T05:50:57;32.42;;;20.15;;
64061;SDS011;50308;47.438;-1.528;2023-06-14T05:53:23;33.60;;;20.17;;
64061;SDS011;50308;47.438;-1.528;2023-06-14T05:55:49;30.38;;;19.85;;
64061;SDS011;50308;47.438;-1.528;2023-06-14T05:58:19;31.92;;;19.85;;
64061;SDS011;50308;47.438;-1.528;2023-06-14T06:00:46;32.63;;;20.20;;
64061;SDS011;50308;47.438;-1.528;2023-06-14T06:03:11;33.85;;;20.25;;
64061;SDS011;50308;47.438;-1.528;2023-06-14T06:05:38;32.30;;;20.67;;
64061;SDS011;50308;47.438;-1.528;2023-06-14T06:08:04;31.83;;;21.13;;
64061;SDS011;50308;47.438;-1.528;2023-06-14T06:10:30;32.83;;;21.42;;
64061;SDS011;50308;47.438;-1.528;2023-06-14T06:12:55;31.70;;;20.13;;
64061;SDS011;50308;47.438;-1.528;2023-06-14T06:15:21;32.95;;;20.38;;
64061;SDS011;50308;47.438;-1.528;2023-06-14T06:17:47;33.63;;;21.38;;
64061;SDS011;50308;47.438;-1.528;2023-06-14T06:20:13;30.88;;;20.33;;
64061;SDS011;50308;47.438;-1.528;2023-06-14T06:22:38;31.17;;;20.35;;
64061;SDS011;50308;47.438;-1.528;2023-06-14T06:25:04;37.42;;;21.20;;
64061;SDS011;50308;47.438;-1.528;2023-06-14T06:27:31;31.63;;;21.15;;
64061;SDS011;50308;47.438;-1.528;2023-06-14T06:29:57;34.47;;;21.42;;
64061;SDS011;50308;47.438;-1.528;2023-06-14T06:32:23;33.47;;;20.92;;
64061;SDS011;50308;47.438;-1.528;2023-06-14T06:34:49;32.20;;;20.98;;
64061;SDS011;50308;47.438;-1.528;2023-06-14T06:37:15;34.47;;;22.25;;
64061;SDS011;50308;47.438;-1.528;2023-06-14T06:39:41;35.28;;;21.67;;
64061;SDS011;50308;47.438;-1.528;2023-06-14T06:42:06;31.25;;;19.98;;
64061;SDS011;50308;47.438;-1.528;2023-06-14T06:44:32;35.58;;;21.92;;
64061;SDS011;50308;47.438;-1.528;2023-06-14T06:46:58;34.72;;;21.77;;
64061;SDS011;50308;47.438;-1.528;2023-06-14T06:49:24;32.85;;;20.40;;
64061;SDS011;50308;47.438;-1.528;2023-06-14T06:51:59;34.25;;;20.88;;
64061;SDS011;50308;47.438;-1.528;2023-06-14T06:54:29;33.13;;;21.95;;
64061;SDS011;50308;47.438;-1.528;2023-06-14T06:56:55;30.85;;;20.70;;
64061;SDS011;50308;47.438;-1.528;2023-06-14T06:59:21;38.33;;;23.13;;
64061;SDS011;50308;47.438;-1.528;2023-06-14T07:01:46;32.80;;;21.55;;
64061;SDS011;50308;47.438;-1.528;2023-06-14T07:04:12;35.70;;;21.42;;
64061;SDS011;50308;47.438;-1.528;2023-06-14T07:06:38;35.38;;;22.00;;
64061;SDS011;50308;47.438;-1.528;2023-06-14T07:09:04;32.95;;;21.98;;
64061;SDS011;50308;47.438;-1.528;2023-06-14T07:11:33;32.78;;;19.75;;
64061;SDS011;50308;47.438;-1.528;2023-06-14T07:13:59;34.17;;;21.55;;
64061;SDS011;50308;47.438;-1.528;2023-06-14T07:16:25;36.53;;;22.02;;
64061;SDS011;50308;47.438;-1.528;2023-06-14T07:18:51;34.72;;;20.95;;
64061;SDS011;50308;47.438;-1.528;2023-06-14T07:21:17;33.15;;;22.38;;
64061;SDS011;50308;47.438;-1.528;2023-06-14T07:23:43;39.60;;;22.90;;
64061;SDS011;50308;47.438;-1.528;2023-06-14T07:26:08;34.53;;;21.58;;
64061;SDS011;50308;47.438;-1.528;2023-06-14T07:28:34;40.35;;;23.52;;
64061;SDS011;50308;47.438;-1.528;2023-06-14T07:31:00;30.63;;;20.48;;
64061;SDS011;50308;47.438;-1.528;2023-06-14T07:33:26;36.33;;;20.92;;
64061;SDS011;50308;47.438;-1.528;2023-06-14T07:35:52;37.50;;;21.27;;
64061;SDS011;50308;47.438;-1.528;2023-06-14T07:38:18;37.00;;;21.02;;
64061;SDS011;50308;47.438;-1.528;2023-06-14T07:40:43;25.40;;;16.88;;
64061;SDS011;50308;47.438;-1.528;2023-06-14T07:43:09;28.38;;;18.63;;
64061;SDS011;50308;47.438;-1.528;2023-06-14T07:45:36;30.70;;;17.52;;
64061;SDS011;50308;47.438;-1.528;2023-06-14T07:48:02;30.38;;;18.30;;
64061;SDS011;50308;47.438;-1.528;2023-06-14T07:50:27;28.58;;;17.58;;
64061;SDS011;50308;47.438;-1.528;2023-06-14T07:52:54;30.65;;;18.88;;
64061;SDS011;50308;47.438;-1.528;2023-06-14T07:55:20;27.38;;;16.27;;
64061;SDS011;50308;47.438;-1.528;2023-06-14T07:57:45;31.38;;;18.55;;
64061;SDS011;50308;47.438;-1.528;2023-06-14T08:00:11;27.58;;;16.52;;
64061;SDS011;50308;47.438;-1.528;2023-06-14T08:02:40;32.22;;;19.42;;
64061;SDS011;50308;47.438;-1.528;2023-06-14T08:05:08;30.23;;;17.65;;
64061;SDS011;50308;47.438;-1.528;2023-06-14T08:07:36;26.85;;;17.92;;
64061;SDS011;50308;47.438;-1.528;2023-06-14T08:10:02;28.17;;;18.92;;
64061;SDS011;50308;47.438;-1.528;2023-06-14T08:12:28;26.48;;;16.77;;
64061;SDS011;50308;47.438;-1.528;2023-06-14T08:14:54;24.75;;;16.77;;
64061;SDS011;50308;47.438;-1.528;2023-06-14T08:17:19;25.20;;;16.98;;
64061;SDS011;50308;47.438;-1.528;2023-06-14T08:19:45;26.30;;;16.33;;
64061;SDS011;50308;47.438;-1.528;2023-06-14T08:22:12;26.38;;;16.63;;
64061;SDS011;50308;47.438;-1.528;2023-06-14T08:24:37;24.50;;;17.45;;
64061;SDS011;50308;47.438;-1.528;2023-06-14T08:27:04;24.98;;;16.85;;
64061;SDS011;50308;47.438;-1.528;2023-06-14T08:29:31;24.90;;;17.10;;
64061;SDS011;50308;47.438;-1.528;2023-06-14T08:31:57;27.25;;;16.48;;
64061;SDS011;50308;47.438;-1.528;2023-06-14T08:34:23;23.70;;;16.55;;
64061;SDS011;50308;47.438;-1.528;2023-06-14T08:36:51;25.85;;;16.17;;
64061;SDS011;50308;47.438;-1.528;2023-06-14T08:39:17;27.92;;;17.55;;
64061;SDS011;50308;47.438;-1.528;2023-06-14T08:41:45;25.30;;;15.63;;
64061;SDS011;50308;47.438;-1.528;2023-06-14T08:44:15;24.05;;;15.90;;
64061;SDS011;50308;47.438;-1.528;2023-06-14T08:46:44;22.90;;;16.23;;
64061;SDS011;50308;47.438;-1.528;2023-06-14T08:49:12;25.80;;;16.65;;
64061;SDS011;50308;47.438;-1.528;2023-06-14T08:51:41;22.20;;;15.02;;
64061;SDS011;50308;47.438;-1.528;2023-06-14T08:54:08;22.42;;;14.25;;
64061;SDS011;50308;47.438;-1.528;2023-06-14T08:56:37;22.98;;;15.98;;
64061;SDS011;50308;47.438;-1.528;2023-06-14T08:59:03;19.58;;;14.68;;
64061;SDS011;50308;47.438;-1.528;2023-06-14T09:01:34;24.63;;;16.50;;
64061;SDS011;50308;47.438;-1.528;2023-06-14T09:04:01;22.88;;;15.75;;
64061;SDS011;50308;47.438;-1.528;2023-06-14T09:06:30;22.90;;;15.48;;
64061;SDS011;50308;47.438;-1.528;2023-06-14T09:08:55;22.42;;;15.73;;
64061;SDS011;50308;47.438;-1.528;2023-06-14T09:11:22;21.02;;;15.30;;
64061;SDS011;50308;47.438;-1.528;2023-06-14T09:13:48;22.42;;;14.88;;
64061;SDS011;50308;47.438;-1.528;2023-06-14T09:16:15;19.73;;;14.23;;
64061;SDS011;50308;47.438;-1.528;2023-06-14T09:18:42;20.50;;;13.77;;
64061;SDS011;50308;47.438;-1.528;2023-06-14T09:21:09;22.63;;;13.70;;
64061;SDS011;50308;47.438;-1.528;2023-06-14T09:23:46;20.27;;;13.48;;
64061;SDS011;50308;47.438;-1.528;2023-06-14T09:28:45;18.70;;;13.38;;
64061;SDS011;50308;47.438;-1.528;2023-06-14T09:31:19;21.60;;;13.50;;
64061;SDS011;50308;47.438;-1.528;2023-06-14T09:33:47;19.17;;;13.38;;
64061;SDS011;50308;47.438;-1.528;2023-06-14T09:36:18;15.30;;;11.82;;
64061;SDS011;50308;47.438;-1.528;2023-06-14T09:38:53;20.80;;;12.57;;
64061;SDS011;50308;47.438;-1.528;2023-06-14T09:41:20;18.75;;;12.98;;
64061;SDS011;50308;47.438;-1.528;2023-06-14T09:44:08;21.08;;;13.25;;
64061;SDS011;50308;47.438;-1.528;2023-06-14T09:46:35;21.63;;;13.40;;
64061;SDS011;50308;47.438;-1.528;2023-06-14T09:49:02;20.08;;;12.90;;
64061;SDS011;50308;47.438;-1.528;2023-06-14T09:51:29;18.98;;;12.48;;
64061;SDS011;50308;47.438;-1.528;2023-06-14T09:53:59;15.73;;;12.55;;
64061;SDS011;50308;47.438;-1.528;2023-06-14T09:58:57;14.82;;;11.60;;
64061;SDS011;50308;47.438;-1.528;2023-06-14T10:01:24;18.52;;;12.55;;
64061;SDS011;50308;47.438;-1.528;2023-06-14T10:03:53;15.93;;;11.20;;
64061;SDS011;50308;47.438;-1.528;2023-06-14T10:06:23;19.52;;;11.98;;
64061;SDS011;50308;47.438;-1.528;2023-06-14T10:08:51;17.52;;;12.18;;
64061;SDS011;50308;47.438;-1.528;2023-06-14T10:11:19;16.83;;;11.65;;
64061;SDS011;50308;47.438;-1.528;2023-06-14T10:13:45;16.27;;;11.50;;
64061;SDS011;50308;47.438;-1.528;2023-06-14T10:16:23;13.73;;;10.95;;
64061;SDS011;50308;47.438;-1.528;2023-06-14T10:19:02;15.60;;;11.10;;
64061;SDS011;50308;47.438;-1.528;2023-06-14T10:24:08;15.40;;;11.38;;
64061;SDS011;50308;47.438;-1.528;2023-06-14T10:26:40;16.02;;;11.82;;
64061;SDS011;50308;47.438;-1.528;2023-06-14T10:29:19;16.98;;;11.50;;
64061;SDS011;50308;47.438;-1.528;2023-06-14T10:31:46;13.93;;;11.23;;
64061;SDS011;50308;47.438;-1.528;2023-06-14T10:34:23;16.08;;;11.00;;
64061;SDS011;50308;47.438;-1.528;2023-06-14T10:37:02;17.10;;;12.00;;
64061;SDS011;50308;47.438;-1.528;2023-06-14T10:39:29;14.27;;;11.18;;
64061;SDS011;50308;47.438;-1.528;2023-06-14T10:41:55;13.70;;;11.07;;
64061;SDS011;50308;47.438;-1.528;2023-06-14T10:49:22;15.07;;;10.88;;
64061;SDS011;50308;47.438;-1.528;2023-06-14T10:52:08;15.77;;;10.70;;
64061;SDS011;50308;47.438;-1.528;2023-06-14T10:55:01;15.23;;;10.68;;
64061;SDS011;50308;47.438;-1.528;2023-06-14T11:00:10;13.95;;;11.02;;
64061;SDS011;50308;47.438;-1.528;2023-06-14T11:05:40;14.32;;;10.82;;
64061;SDS011;50308;47.438;-1.528;2023-06-14T11:10:40;16.83;;;11.10;;
64061;SDS011;50308;47.438;-1.528;2023-06-14T11:13:07;16.05;;;11.57;;
64061;SDS011;50308;47.438;-1.528;2023-06-14T11:15:34;13.93;;;10.65;;
64061;SDS011;50308;47.438;-1.528;2023-06-14T11:18:02;13.95;;;10.50;;
64061;SDS011;50308;47.438;-1.528;2023-06-14T11:20:30;12.27;;;10.88;;
64061;SDS011;50308;47.438;-1.528;2023-06-14T11:22:57;17.80;;;11.05;;
64061;SDS011;50308;47.438;-1.528;2023-06-14T11:25:23;16.02;;;11.10;;
64061;SDS011;50308;47.438;-1.528;2023-06-14T11:27:50;14.85;;;10.82;;
64061;SDS011;50308;47.438;-1.528;2023-06-14T11:30:16;15.93;;;10.43;;
64061;SDS011;50308;47.438;-1.528;2023-06-14T11:32:45;15.55;;;10.43;;
64061;SDS011;50308;47.438;-1.528;2023-06-14T11:35:11;15.18;;;9.85;;
64061;SDS011;50308;47.438;-1.528;2023-06-14T11:37:37;12.63;;;9.98;;
64061;SDS011;50308;47.438;-1.528;2023-06-14T11:40:03;15.25;;;11.23;;
64061;SDS011;50308;47.438;-1.528;2023-06-14T11:42:34;14.07;;;10.45;;
64061;SDS011;50308;47.438;-1.528;2023-06-14T11:45:01;14.18;;;10.98;;
64061;SDS011;50308;47.438;-1.528;2023-06-14T11:47:46;15.50;;;10.60;;
64061;SDS011;50308;47.438;-1.528;2023-06-14T11:50:11;15.63;;;10.32;;
64061;SDS011;50308;47.438;-1.528;2023-06-14T11:52:37;15.27;;;10.65;;
64061;SDS011;50308;47.438;-1.528;2023-06-14T11:55:03;13.18;;;10.93;;
64061;SDS011;50308;47.438;-1.528;2023-06-14T11:57:30;12.98;;;10.40;;
64061;SDS011;50308;47.438;-1.528;2023-06-14T11:59:59;15.25;;;10.30;;
64061;SDS011;50308;47.438;-1.528;2023-06-14T12:02:31;14.45;;;10.82;;
64061;SDS011;50308;47.438;-1.528;2023-06-14T12:05:03;14.93;;;10.43;;
64061;SDS011;50308;47.438;-1.528;2023-06-14T12:07:31;13.50;;;9.73;;
64061;SDS011;50308;47.438;-1.528;2023-06-14T12:12:22;12.88;;;10.15;;
64061;SDS011;50308;47.438;-1.528;2023-06-14T12:14:51;14.65;;;10.02;;
64061;SDS011;50308;47.438;-1.528;2023-06-14T12:17:18;13.40;;;9.75;;
64061;SDS011;50308;47.438;-1.528;2023-06-14T12:19:45;12.88;;;10.43;;
64061;SDS011;50308;47.438;-1.528;2023-06-14T12:22:11;12.35;;;9.73;;
64061;SDS011;50308;47.438;-1.528;2023-06-14T12:24:38;13.00;;;9.57;;
64061;SDS011;50308;47.438;-1.528;2023-06-14T12:27:04;14.15;;;10.43;;
64061;SDS011;50308;47.438;-1.528;2023-06-14T12:29:30;14.80;;;9.50;;
64061;SDS011;50308;47.438;-1.528;2023-06-14T12:31:57;12.68;;;9.60;;
64061;SDS011;50308;47.438;-1.528;2023-06-14T12:34:26;11.82;;;9.65;;
64061;SDS011;50308;47.438;-1.528;2023-06-14T12:36:52;12.15;;;9.20;;
64061;SDS011;50308;47.438;-1.528;2023-06-14T12:39:19;13.48;;;10.52;;
64061;SDS011;50308;47.438;-1.528;2023-06-14T12:41:45;15.65;;;10.02;;
64061;SDS011;50308;47.438;-1.528;2023-06-14T12:44:11;12.55;;;9.90;;
64061;SDS011;50308;47.438;-1.528;2023-06-14T12:46:38;13.13;;;10.27;;
64061;SDS011;50308;47.438;-1.528;2023-06-14T12:49:05;14.20;;;9.35;;
64061;SDS011;50308;47.438;-1.528;2023-06-14T12:51:32;11.93;;;9.18;;
64061;SDS011;50308;47.438;-1.528;2023-06-14T12:53:58;12.90;;;9.50;;
64061;SDS011;50308;47.438;-1.528;2023-06-14T12:56:24;13.15;;;8.75;;
64061;SDS011;50308;47.438;-1.528;2023-06-14T12:58:51;10.00;;;8.20;;
64061;SDS011;50308;47.438;-1.528;2023-06-14T13:01:17;12.35;;;8.55;;
64061;SDS011;50308;47.438;-1.528;2023-06-14T13:03:43;12.38;;;8.70;;
64061;SDS011;50308;47.438;-1.528;2023-06-14T13:06:08;11.95;;;9.30;;
64061;SDS011;50308;47.438;-1.528;2023-06-14T13:08:34;10.07;;;8.52;;
64061;SDS011;50308;47.438;-1.528;2023-06-14T13:11:00;10.95;;;7.97;;
64061;SDS011;50308;47.438;-1.528;2023-06-14T13:13:25;11.10;;;7.78;;
64061;SDS011;50308;47.438;-1.528;2023-06-14T13:15:51;12.23;;;8.93;;
64061;SDS011;50308;47.438;-1.528;2023-06-14T13:18:17;10.45;;;8.63;;
64061;SDS011;50308;47.438;-1.528;2023-06-14T13:20:42;10.73;;;8.30;;
64061;SDS011;50308;47.438;-1.528;2023-06-14T13:23:08;9.75;;;8.60;;
64061;SDS011;50308;47.438;-1.528;2023-06-14T13:25:35;12.55;;;8.60;;
64061;SDS011;50308;47.438;-1.528;2023-06-14T13:28:01;10.07;;;8.55;;
64061;SDS011;50308;47.438;-1.528;2023-06-14T13:30:28;9.93;;;8.23;;
64061;SDS011;50308;47.438;-1.528;2023-06-14T13:32:54;10.45;;;8.23;;
64061;SDS011;50308;47.438;-1.528;2023-06-14T13:35:21;12.00;;;8.93;;
64061;SDS011;50308;47.438;-1.528;2023-06-14T13:37:47;11.27;;;8.65;;
64061;SDS011;50308;47.438;-1.528;2023-06-14T13:40:13;9.02;;;7.88;;
64061;SDS011;50308;47.438;-1.528;2023-06-14T13:42:39;11.15;;;8.48;;
64061;SDS011;50308;47.438;-1.528;2023-06-14T13:45:05;12.35;;;8.00;;
64061;SDS011;50308;47.438;-1.528;2023-06-14T13:47:32;13.20;;;8.70;;
64061;SDS011;50308;47.438;-1.528;2023-06-14T13:49:58;8.57;;;7.53;;
64061;SDS011;50308;47.438;-1.528;2023-06-14T13:52:24;9.80;;;8.05;;
64061;SDS011;50308;47.438;-1.528;2023-06-14T13:54:50;11.18;;;8.68;;
64061;SDS011;50308;47.438;-1.528;2023-06-14T13:57:16;8.38;;;7.57;;
64061;SDS011;50308;47.438;-1.528;2023-06-14T13:59:42;8.93;;;7.35;;
64061;SDS011;50308;47.438;-1.528;2023-06-14T14:02:11;11.15;;;8.25;;
64061;SDS011;50308;47.438;-1.528;2023-06-14T14:04:37;10.07;;;8.38;;
64061;SDS011;50308;47.438;-1.528;2023-06-14T14:07:04;12.45;;;8.80;;
64061;SDS011;50308;47.438;-1.528;2023-06-14T14:09:31;9.55;;;8.18;;
64061;SDS011;50308;47.438;-1.528;2023-06-14T14:11:57;8.88;;;7.72;;
64061;SDS011;50308;47.438;-1.528;2023-06-14T14:14:23;10.13;;;7.50;;
64061;SDS011;50308;47.438;-1.528;2023-06-14T14:16:49;10.13;;;7.90;;
64061;SDS011;50308;47.438;-1.528;2023-06-14T14:19:22;10.23;;;8.05;;
64061;SDS011;50308;47.438;-1.528;2023-06-14T14:21:49;9.63;;;8.05;;
64061;SDS011;50308;47.438;-1.528;2023-06-14T14:24:15;10.63;;;8.63;;
64061;SDS011;50308;47.438;-1.528;2023-06-14T14:26:41;9.32;;;7.72;;
64061;SDS011;50308;47.438;-1.528;2023-06-14T14:29:07;11.00;;;8.63;;
64061;SDS011;50308;47.438;-1.528;2023-06-14T14:31:33;8.80;;;7.88;;
64061;SDS011;50308;47.438;-1.528;2023-06-14T14:33:59;9.45;;;8.23;;
64061;SDS011;50308;47.438;-1.528;2023-06-14T14:36:25;9.88;;;7.60;;
64061;SDS011;50308;47.438;-1.528;2023-06-14T14:38:51;11.18;;;8.68;;
64061;SDS011;50308;47.438;-1.528;2023-06-14T14:41:17;10.52;;;8.27;;
64061;SDS011;50308;47.438;-1.528;2023-06-14T14:43:43;9.93;;;8.38;;